WetterOnline ( https://www.wetteronline.de )

Wetter aktuell Kirchzarten

Aktuelles Wetter: Freiburg/Flugplatz (236m)

6-stündlich | Neueste Meldungen
Ortszeit Temperatur Wetter
Di, 22.10. 20:00 13.1° C bedeckt
Di, 22.10. 14:00 13.7° C bedeckt
Di, 22.10. 8:00 11.7° C bedeckt
Di, 22.10. 2:00 12.7° C bedeckt
Mo, 21.10. 20:00 13.2° C Regen
Mo, 21.10. 14:00 15.6° C bedeckt
Mo, 21.10. 8:00 14.9° C bedeckt
Mo, 21.10. 2:00 14.7° C bedeckt
Ortszeit Temperatur Wetter
Di, 22.10. 23:00 12.9° C bedeckt
Di, 22.10. 22:50 12.9° C bedeckt
Di, 22.10. 22:40 12.9° C bedeckt
Di, 22.10. 22:30 12.9° C bedeckt
Di, 22.10. 22:20 12.9° C bedeckt
Di, 22.10. 22:10 12.9° C bedeckt
Di, 22.10. 22:00 12.9° C bewölkt
Di, 22.10. 21:30 12.9° C bedeckt
Di, 22.10. 21:00 13.0° C bedeckt
Di, 22.10. 20:30 13.0° C bedeckt
Di, 22.10. 20:00 13.1° C bedeckt
Ortszeit Relative Feuchte Sichtweite
Di, 22.10. 20:00 94% 6 km
Di, 22.10. 14:00 87% 24 km
Di, 22.10. 8:00 98% 13 km
Di, 22.10. 2:00 97% 12 km
Mo, 21.10. 20:00 95% 27 km
Mo, 21.10. 14:00 70% 70 km
Mo, 21.10. 8:00 88% 55 km
Mo, 21.10. 2:00 89% 28 km
Ortszeit Relative Feuchte Sichtweite
Di, 22.10. 23:00 95% 5.0 km
Di, 22.10. 22:50 95% -
Di, 22.10. 22:40 95% -
Di, 22.10. 22:30 95% 5.0 km
Di, 22.10. 22:20 95% -
Di, 22.10. 22:10 96% -
Di, 22.10. 22:00 95% 5.0 km
Di, 22.10. 21:30 95% 4.9 km
Di, 22.10. 21:00 94% 5.0 km
Di, 22.10. 20:30 94% 5.0 km
Di, 22.10. 20:00 94% 6 km
Ortszeit Niederschlagsmenge Niederschlagsart
Di, 22.10. 20:00 0.1 l/m2 in 12 Std. -
Di, 22.10. 14:00 0.1 l/m2 in 6 Std. Sprühregen
Di, 22.10. 8:00 3 l/m2 in 12 Std. -
Di, 22.10. 2:00 3 l/m2 in 6 Std. Regen
Mo, 21.10. 20:00 2 l/m2 in 12 Std. Regen
Mo, 21.10. 14:00 0.1 l/m2 in 6 Std. Regen
Mo, 21.10. 8:00 1 l/m2 in 12 Std. Regen
Mo, 21.10. 2:00 0.1 l/m2 in 6 Std. Regen
Ortszeit Niederschlagsmenge Niederschlagsart
Di, 22.10. 23:00 0.0 l/m2 in 1 Std. -
Di, 22.10. 22:50 keine Meldung -
Di, 22.10. 22:40 keine Meldung -
Di, 22.10. 22:30 0.0 l/m2 in 1 Std. -
Di, 22.10. 22:20 keine Meldung -
Di, 22.10. 22:10 keine Meldung -
Di, 22.10. 22:00 0.0 l/m2 in 1 Std. -
Di, 22.10. 21:30 0.0 l/m2 in 1 Std. -
Di, 22.10. 21:00 0.0 l/m2 in 1 Std. -
Di, 22.10. 20:30 0.0 l/m2 in 1 Std. -
Di, 22.10. 20:00 0.0 l/m2 in 1 Std. -
Ortszeit Stärke Spitze Richtung
km/h Bft. km/h Grad Sektor
Di, 22.10. 20:00 9 2 17 340° N
Di, 22.10. 14:00 7 2 14 350° N
Di, 22.10. 8:00 2 1 9 260° W
Di, 22.10. 2:00 0 0 14 - -
Mo, 21.10. 20:00 4 1 14 60° NO
Mo, 21.10. 14:00 7 2 25 220° SW
Mo, 21.10. 8:00 9 2 22 240° SW
Mo, 21.10. 2:00 4 1 25 80° O
Ortszeit Stärke Spitze Richtung
km/h Bft. km/h Grad Sektor
Di, 22.10. 23:00 4 1 7 20° N
Di, 22.10. 22:50 4 1 - 20° N
Di, 22.10. 22:40 4 1 - 350° N
Di, 22.10. 22:30 4 1 7 340° N
Di, 22.10. 22:20 4 1 - 340° N
Di, 22.10. 22:10 4 1 - 340° N
Di, 22.10. 22:00 4 1 11 330° NW
Di, 22.10. 21:30 7 2 11 350° N
Di, 22.10. 21:00 6 1 11 350° N
Di, 22.10. 20:30 9 2 11 340° N
Di, 22.10. 20:00 9 2 13 340° N
Ortszeit Untergrenze Bedeckung Gattung
total tief tief mittel hoch
Di, 22.10. 20:00 180 m 8/8 8/8 - - -
Di, 22.10. 14:00 240 m 8/8 8/8 - - -
Di, 22.10. 8:00 60 m 8/8 8/8 - - -
Di, 22.10. 2:00 90 m 8/8 8/8 - - -
Mo, 21.10. 20:00 2700 m 8/8 8/8 - - -
Mo, 21.10. 14:00 1350 m 8/8 8/8 - - -
Mo, 21.10. 8:00 1230 m 8/8 8/8 - - -
Mo, 21.10. 2:00 3600 m 8/8 8/8 - - -
Ortszeit Bedeckungsgrad in Achtel und Wolkenuntergrenze
Di, 22.10. 23:00 5(120m) 8(240m)
Di, 22.10. 22:50 5(120m) 8(240m)
Di, 22.10. 22:40 2(120m) 8(240m)
Di, 22.10. 22:30 1(90m) 8(240m)
Di, 22.10. 22:20 1(90m) 8(240m)
Di, 22.10. 22:10 1(90m) 8(240m)
Di, 22.10. 22:00 7(210m) 8(240m)
Di, 22.10. 21:30 8(210m) 8(300m)
Di, 22.10. 21:00 6(180m) 8(270m)
Di, 22.10. 20:30 8(270m)
Di, 22.10. 20:00 8(180m)
Ortszeit Luftdruck NN (hPa) Tendenz (hPa in 3 Std.)
Di, 22.10. 20:00 1022 - 0,3
Di, 22.10. 14:00 1024 - 1,0
Di, 22.10. 8:00 1023 0,0
Di, 22.10. 2:00 1024 + 0,1
Mo, 21.10. 20:00 1022 + 1,2
Mo, 21.10. 14:00 1020 + 1,4
Mo, 21.10. 8:00 1017 + 2,5
Mo, 21.10. 2:00 1012 + 0,2
Ortszeit Luftdruck NN (hPa) Tendenz (hPa in 3 Std.)
Di, 22.10. 23:00 1021 - 0,8
Di, 22.10. 22:50 1021 keine Meldung
Di, 22.10. 22:40 1021 keine Meldung
Di, 22.10. 22:30 1022 - 0,9
Di, 22.10. 22:20 1022 keine Meldung
Di, 22.10. 22:10 1022 keine Meldung
Di, 22.10. 22:00 1022 - 0,6
Di, 22.10. 21:30 1022 - 0,8
Di, 22.10. 21:00 1022 - 0,5
Di, 22.10. 20:30 1022 - 0,5
Di, 22.10. 20:00 1022 - 0,3
Ortszeit Schneehöhe (cm)
Di, 22.10. 20:00 0
Di, 22.10. 14:00 0
Di, 22.10. 8:00 0
Di, 22.10. 2:00 0
Mo, 21.10. 20:00 0
Mo, 21.10. 14:00 0
Mo, 21.10. 8:00 0
Mo, 21.10. 2:00 0
Ortszeit Schneehöhe (cm)
Di, 22.10. 23:00 0
Di, 22.10. 22:50 0
Di, 22.10. 22:40 0
Di, 22.10. 22:30 0
Di, 22.10. 22:20 0
Di, 22.10. 22:10 0
Di, 22.10. 22:00 0
Di, 22.10. 21:30 0
Di, 22.10. 21:00 0
Di, 22.10. 20:30 0
Di, 22.10. 20:00 0
Link zu dieser Seite / Seite empfehlen

Das Wetter in ...